Time;durP1;ratioP1;P1;durP2;ratioP2;P2;SDS_P1;SDS_P2;PMS_P1;PMS_P2;Temp;Humidity;BMP_temperature;BMP_pressure;BME280_temperature;BME280_humidity;BME280_pressure;Samples;Min_cycle;Max_cycle;Signal;HPM_P1;HPM_P2
2023/12/28 00:00:20;;;;;;;;;;;;;;;12.99;53.15;100033.84;4951217;28;7440;-84
2023/12/28 00:02:46;;;;;;;;;;;;;;;12.99;54.04;100041.56;4954680;28;6787;-84
2023/12/28 00:05:12;;;;;;;;;;;;;;;12.99;54.01;100047.63;4953340;28;7403;-84
2023/12/28 00:07:37;;;;;;;;;;;;;;;13.01;54.13;100040.81;4952214;28;8494;-84
2023/12/28 00:10:03;;;;;;;;;;;;;;;13.08;54.05;100036.72;4952475;28;6949;-84
2023/12/28 00:12:29;;;;;;;;;;;;;;;13.15;54.39;100037.78;4952413;28;7232;-84
2023/12/28 00:14:54;;;;;;;;;;;;;;;13.24;54.06;100043.22;4935851;28;7140;-84
2023/12/28 00:17:20;;;;;;;;;;;;;;;13.31;54.60;100031.41;4936453;28;8654;-84
2023/12/28 00:19:46;;;;;;;;;;;;;;;13.39;53.62;100019.66;4950361;28;7105;-84
2023/12/28 00:22:11;;;;;;;;;;;;;;;13.47;53.64;100025.94;4914781;28;1076105;-85
2023/12/28 00:24:37;;;;;;;;;;;;;;;13.54;52.88;100039.88;4953250;28;6950;-84
2023/12/28 00:27:02;;;;;;;;;;;;;;;13.57;53.35;100029.69;4967499;28;7123;-84
2023/12/28 00:29:29;;;;;;;;;;;;;;;13.66;53.09;100033.34;4952825;28;6962;-84
2023/12/28 00:31:55;;;;;;;;;;;;;;;13.69;53.44;100041.19;4951429;28;8515;-84
2023/12/28 00:34:21;;;;;;;;;;;;;;;13.74;52.68;100035.34;4950300;28;8006;-84
2023/12/28 00:36:46;;;;;;;;;;;;;;;13.79;52.64;100039.72;4951015;28;6979;-84
2023/12/28 00:39:12;;;;;;;;;;;;;;;13.81;52.77;100043.22;4955408;28;6788;-84
2023/12/28 00:41:39;;;;;;;;;;;;;;;13.85;52.83;100034.75;4955173;28;7318;-85
2023/12/28 00:44:06;;;;;;;;;;;;;;;13.91;52.09;100034.06;4940943;28;6991;-84
2023/12/28 00:46:32;;;;;;;;;;;;;;;13.93;51.86;100035.88;4972523;28;8462;-83
2023/12/28 00:48:57;;;;;;;;;;;;;;;13.97;52.39;100045.41;4956019;28;8551;-84
2023/12/28 00:51:23;;;;;;;;;;;;;;;14.00;52.12;100040.38;4974781;28;8419;-84
2023/12/28 00:53:48;;;;;;;;;;;;;;;14.06;52.22;100049.09;4972869;28;8471;-84
2023/12/28 00:56:14;;;;;;;;;;;;;;;14.11;51.36;100052.69;4957885;28;7223;-84
2023/12/28 00:58:40;;;;;;;;;;;;;;;14.14;51.50;100052.75;4940172;28;6834;-84
2023/12/28 01:01:05;;;;;;;;;;;;;;;14.15;51.47;100047.66;4953452;28;7181;-84
2023/12/28 01:03:31;;;;;;;;;;;;;;;14.20;52.19;100046.88;4956500;28;7123;-84
2023/12/28 01:05:56;;;;;;;;;;;;;;;14.21;51.91;100041.78;4952132;28;9309;-84
2023/12/28 01:08:22;;;;;;;;;;;;;;;14.22;51.95;100052.94;4973013;28;6800;-85
2023/12/28 01:10:47;;;;;;;;;;;;;;;14.24;52.16;100059.91;4956420;28;8351;-84
2023/12/28 01:13:13;;;;;;;;;;;;;;;14.24;51.82;100041.88;4950417;28;8937;-85
2023/12/28 01:15:39;;;;;;;;;;;;;;;14.24;51.35;100049.59;4951454;28;7028;-85
2023/12/28 01:18:04;;;;;;;;;;;;;;;14.25;51.90;100042.75;4957251;28;7170;-84
2023/12/28 01:20:30;;;;;;;;;;;;;;;14.25;51.96;100060.78;4940124;28;7178;-84
2023/12/28 01:22:55;;;;;;;;;;;;;;;14.28;51.63;100064.28;4941923;28;6998;-84
2023/12/28 01:25:21;;;;;;;;;;;;;;;14.28;51.64;100060.88;4939670;28;7176;-83
2023/12/28 01:27:46;;;;;;;;;;;;;;;14.26;52.25;100049.66;4952297;28;6930;-84
2023/12/28 01:30:12;;;;;;;;;;;;;;;14.23;51.67;100057.28;4956238;28;7174;-84
2023/12/28 01:32:38;;;;;;;;;;;;;;;14.23;52.37;100052.13;4951431;28;7137;-84
2023/12/28 01:35:04;;;;;;;;;;;;;;;14.23;52.30;100059.84;4957551;28;8603;-84
2023/12/28 01:37:31;;;;;;;;;;;;;;;14.24;52.75;100049.59;4953120;28;7093;-84
2023/12/28 01:39:56;;;;;;;;;;;;;;;14.26;52.45;100068.53;4941220;28;6993;-84
2023/12/28 01:42:22;;;;;;;;;;;;;;;14.27;52.31;100075.44;4954713;28;6772;-85
2023/12/28 01:44:47;;;;;;;;;;;;;;;14.27;53.02;100074.59;4957467;28;7046;-84
2023/12/28 01:47:13;;;;;;;;;;;;;;;14.22;52.86;100063.25;4963552;28;7116;-85
2023/12/28 01:49:38;;;;;;;;;;;;;;;14.22;52.77;100077.03;4957912;28;7244;-84
2023/12/28 01:52:05;;;;;;;;;;;;;;;14.20;52.79;100081.28;4958509;28;7124;-84
2023/12/28 01:54:32;;;;;;;;;;;;;;;14.16;52.64;100077.75;4959145;28;6825;-84
2023/12/28 01:57:00;;;;;;;;;;;;;;;14.15;53.33;100095.72;4971358;28;6824;-84
2023/12/28 01:59:25;;;;;;;;;;;;;;;14.10;52.97;100097.28;4974470;28;7329;-85
2023/12/28 02:01:51;;;;;;;;;;;;;;;14.08;52.97;100088.66;4957971;28;7113;-85
2023/12/28 02:04:17;;;;;;;;;;;;;;;14.03;53.52;100086.81;4954548;28;6893;-84
2023/12/28 02:06:43;;;;;;;;;;;;;;;14.06;53.22;100095.47;4957464;28;6954;-84
2023/12/28 02:09:08;;;;;;;;;;;;;;;14.02;53.31;100085.09;4971132;28;8397;-84
2023/12/28 02:11:34;;;;;;;;;;;;;;;14.00;53.84;100081.59;4955326;28;6860;-85
2023/12/28 02:13:59;;;;;;;;;;;;;;;14.00;53.63;100076.44;4956405;28;6899;-85
2023/12/28 02:16:41;;;;;;;;;;;;;;;13.98;53.95;100078.06;4952408;28;6890;-85
2023/12/28 02:19:21;;;;;;;;;;;;;;;13.94;53.64;100071.09;4953099;28;7178;-85
2023/12/28 02:21:47;;;;;;;;;;;;;;;13.93;54.57;100068.47;4956000;28;8515;-84
2023/12/28 02:24:13;;;;;;;;;;;;;;;13.94;54.00;100075.38;4956464;28;6958;-85
2023/12/28 02:26:38;;;;;;;;;;;;;;;13.92;54.19;100077.91;4956429;28;6800;-84
2023/12/28 02:29:04;;;;;;;;;;;;;;;13.91;54.27;100090.75;4954282;28;6800;-85
2023/12/28 02:31:37;;;;;;;;;;;;;;;13.90;53.92;100076.97;4952477;28;7113;-84
2023/12/28 02:34:16;;;;;;;;;;;;;;;13.91;54.18;100077.84;4952377;28;6799;-84
2023/12/28 02:36:44;;;;;;;;;;;;;;;13.87;54.08;100082.03;4940305;28;7010;-84
2023/12/28 02:39:11;;;;;;;;;;;;;;;13.89;54.21;100090.69;4943923;28;6994;-84
2023/12/28 02:41:38;;;;;;;;;;;;;;;13.88;53.91;100091.50;4936768;28;7141;-84
2023/12/28 02:44:03;;;;;;;;;;;;;;;13.86;54.58;100078.63;4940061;28;7138;-84
2023/12/28 02:46:29;;;;;;;;;;;;;;;13.87;54.58;100084.63;4972239;28;7096;-84
2023/12/28 02:48:57;;;;;;;;;;;;;;;13.83;53.94;100077.66;4956072;28;6799;-84
2023/12/28 02:51:22;;;;;;;;;;;;;;;13.85;55.19;100083.72;4968854;28;6971;-84
2023/12/28 02:53:48;;;;;;;;;;;;;;;13.83;54.45;100073.34;4952349;28;8407;-84
2023/12/28 02:56:13;;;;;;;;;;;;;;;13.83;54.94;100075.94;4937989;28;6975;-84
2023/12/28 02:58:39;;;;;;;;;;;;;;;13.81;55.08;100063.81;4971593;28;6792;-84
2023/12/28 03:01:04;;;;;;;;;;;;;;;13.80;54.81;100068.13;4955980;28;6972;-84
2023/12/28 03:03:30;;;;;;;;;;;;;;;13.81;54.42;100064.72;4935472;28;7205;-84
2023/12/28 03:05:55;;;;;;;;;;;;;;;13.79;54.55;100060.34;4936655;28;8390;-84
2023/12/28 03:08:21;;;;;;;;;;;;;;;13.80;54.80;100080.09;4940209;28;6881;-84
2023/12/28 03:10:46;;;;;;;;;;;;;;;13.80;55.03;100077.53;4953532;28;6966;-84
2023/12/28 03:13:12;;;;;;;;;;;;;;;13.78;54.49;100072.34;4954580;28;6840;-84
2023/12/28 03:15:37;;;;;;;;;;;;;;;13.82;55.26;100081.06;4937924;28;6885;-84
2023/12/28 03:18:03;;;;;;;;;;;;;;;13.78;54.96;100076.63;4954626;28;6796;-83
2023/12/28 03:20:28;;;;;;;;;;;;;;;13.78;55.32;100081.78;4955309;28;6969;-84
2023/12/28 03:22:54;;;;;;;;;;;;;;;13.80;54.39;100077.53;4971413;28;6972;-84
2023/12/28 03:25:19;;;;;;;;;;;;;;;13.80;55.30;100072.38;4937232;28;6966;-84
2023/12/28 03:27:45;;;;;;;;;;;;;;;13.78;54.78;100063.75;4954283;28;6858;-84
2023/12/28 03:30:11;;;;;;;;;;;;;;;13.82;54.73;100075.91;4956779;28;6788;-84
2023/12/28 03:32:36;;;;;;;;;;;;;;;13.82;55.22;100060.44;4962593;28;7291;-84
2023/12/28 03:35:03;;;;;;;;;;;;;;;13.80;55.06;100050.09;4956243;28;7230;-83
2023/12/28 03:37:29;;;;;;;;;;;;;;;13.81;54.76;100059.56;4950149;28;7171;-84
2023/12/28 03:39:54;;;;;;;;;;;;;;;13.82;55.01;100065.59;4953697;28;6988;-84
2023/12/28 03:42:21;;;;;;;;;;;;;;;13.83;55.37;100065.63;4967925;28;7166;-83
2023/12/28 03:44:47;;;;;;;;;;;;;;;13.83;54.55;100050.16;4939434;28;7066;-84
2023/12/28 03:47:12;;;;;;;;;;;;;;;13.81;54.95;100049.25;4955099;28;7246;-84
2023/12/28 03:49:39;;;;;;;;;;;;;;;13.82;54.95;100050.16;4952610;28;6776;-84
2023/12/28 03:52:05;;;;;;;;;;;;;;;13.80;55.52;100044.03;4955989;28;6965;-84
2023/12/28 03:54:30;;;;;;;;;;;;;;;13.78;55.11;100049.19;4952095;28;7100;-84
2023/12/28 03:56:57;;;;;;;;;;;;;;;13.78;54.89;100038.88;4952363;28;8602;-84
2023/12/28 03:59:22;;;;;;;;;;;;;;;13.81;54.97;100048.38;4952515;28;7061;-84
2023/12/28 04:01:48;;;;;;;;;;;;;;;13.82;54.94;100042.41;4937836;28;7017;-84
2023/12/28 04:04:13;;;;;;;;;;;;;;;13.81;54.69;100032.91;4955657;28;8420;-84
2023/12/28 04:06:39;;;;;;;;;;;;;;;13.82;54.71;100047.56;4955382;28;6863;-84
2023/12/28 04:09:04;;;;;;;;;;;;;;;13.80;54.87;100041.47;4939712;28;7461;-84
2023/12/28 04:11:30;;;;;;;;;;;;;;;13.83;54.59;100042.44;4955016;28;7878;-84
2023/12/28 04:13:55;;;;;;;;;;;;;;;13.83;55.26;100029.56;4968574;28;7015;-83
2023/12/28 04:16:21;;;;;;;;;;;;;;;13.80;54.81;100036.31;4952762;28;9782;-84
2023/12/28 04:18:46;;;;;;;;;;;;;;;13.80;55.13;100046.63;4973246;28;6851;-84
2023/12/28 04:21:12;;;;;;;;;;;;;;;13.76;55.02;100040.50;4974738;28;8434;-84
2023/12/28 04:23:40;;;;;;;;;;;;;;;13.76;55.05;100040.50;4975538;28;7222;-84
2023/12/28 04:26:05;;;;;;;;;;;;;;;13.73;54.63;100036.16;4973758;28;8475;-84
2023/12/28 04:28:34;;;;;;;;;;;;;;;13.73;54.82;100041.31;4955747;28;6953;-85
2023/12/28 04:31:05;;;;;;;;;;;;;;;13.74;54.77;100043.06;4974653;28;6994;-84
2023/12/28 04:33:31;;;;;;;;;;;;;;;13.77;55.19;100054.28;4972982;28;7156;-84
2023/12/28 04:35:56;;;;;;;;;;;;;;;13.74;54.82;100050.78;4972787;28;7104;-84
2023/12/28 04:38:22;;;;;;;;;;;;;;;13.74;54.58;100058.50;4955765;28;8411;-84
2023/12/28 04:40:47;;;;;;;;;;;;;;;13.75;54.79;100069.66;4950612;28;6916;-84
2023/12/28 04:43:13;;;;;;;;;;;;;;;13.75;55.52;100072.25;4942487;28;6951;-84
2023/12/28 04:45:38;;;;;;;;;;;;;;;13.75;54.76;100080.84;4958034;28;6780;-84
2023/12/28 04:48:04;;;;;;;;;;;;;;;13.75;54.93;100074.81;4943266;28;7188;-84
2023/12/28 04:50:30;;;;;;;;;;;;;;;13.75;55.15;100086.00;4974591;28;6808;-84
2023/12/28 04:52:55;;;;;;;;;;;;;;;13.75;55.11;100086.00;4957617;28;6792;-84
2023/12/28 04:55:21;;;;;;;;;;;;;;;13.77;54.63;100082.59;4957219;28;7147;-84
2023/12/28 04:57:46;;;;;;;;;;;;;;;13.77;54.88;100092.91;4941719;28;6968;-84
2023/12/28 05:00:12;;;;;;;;;;;;;;;13.79;54.61;100104.13;4941876;28;7292;-84
2023/12/28 05:02:37;;;;;;;;;;;;;;;13.79;54.80;100096.41;4958839;28;7264;-85
2023/12/28 05:05:03;;;;;;;;;;;;;;;13.84;55.19;100105.16;4957829;28;6972;-85
2023/12/28 05:07:29;;;;;;;;;;;;;;;13.86;55.07;100106.06;4962095;28;8105;-84
2023/12/28 05:09:54;;;;;;;;;;;;;;;13.92;54.38;100102.78;4957881;28;6938;-84
2023/12/28 05:12:20;;;;;;;;;;;;;;;13.93;54.60;100105.44;4952314;28;7146;-84
2023/12/28 05:14:45;;;;;;;;;;;;;;;13.95;54.75;100110.59;4973829;28;6964;-84
2023/12/28 05:17:12;;;;;;;;;;;;;;;13.94;54.34;100111.44;4961484;28;6799;-84
2023/12/28 05:19:37;;;;;;;;;;;;;;;13.96;54.90;100120.09;4941300;28;7298;-84
2023/12/28 05:22:06;;;;;;;;;;;;;;;13.96;54.54;100120.97;4957662;28;7011;-84
2023/12/28 05:24:32;;;;;;;;;;;;;;;13.99;54.30;100115.03;4974918;28;7160;-84
2023/12/28 05:26:57;;;;;;;;;;;;;;;14.05;54.41;100119.50;4973264;28;7003;-84
2023/12/28 05:29:23;;;;;;;;;;;;;;;14.07;53.95;100108.41;4942069;28;6963;-84
2023/12/28 05:31:49;;;;;;;;;;;;;;;14.12;54.23;100116.28;4956873;28;7204;-84
2023/12/28 05:34:14;;;;;;;;;;;;;;;14.14;54.04;100109.44;4973291;28;7004;-84
2023/12/28 05:36:41;;;;;;;;;;;;;;;14.19;53.96;100112.16;4959250;28;6961;-84
2023/12/28 05:39:09;;;;;;;;;;;;;;;14.20;54.12;100104.47;4940986;28;6834;-84
2023/12/28 05:41:34;;;;;;;;;;;;;;;14.24;53.53;100110.56;4941603;28;7419;-84
2023/12/28 05:44:00;;;;;;;;;;;;;;;14.23;53.60;100109.72;4959095;28;7112;-82
2023/12/28 05:46:25;;;;;;;;;;;;;;;14.23;53.63;100094.25;4957797;28;6795;-85
2023/12/28 05:48:51;;;;;;;;;;;;;;;14.23;53.18;100109.72;4959850;28;6992;-84
2023/12/28 05:51:18;;;;;;;;;;;;;;;14.20;53.12;100114.78;4957542;28;6780;-84
2023/12/28 05:53:43;;;;;;;;;;;;;;;14.16;52.88;100112.94;4939853;28;6998;-84
2023/12/28 05:56:09;;;;;;;;;;;;;;;14.16;53.29;100123.25;4957543;28;7237;-84
2023/12/28 05:58:35;;;;;;;;;;;;;;;14.08;53.04;100114.41;4959001;28;6784;-84
2023/12/28 06:01:00;;;;;;;;;;;;;;;14.03;53.68;100117.75;4940777;28;6961;-84
2023/12/28 06:03:28;;;;;;;;;;;;;;;14.03;53.42;100132.31;4957903;28;7148;-84
2023/12/28 06:05:55;;;;;;;;;;;;;;;13.98;53.11;100111.56;4975300;28;6955;-84
2023/12/28 06:08:20;;;;;;;;;;;;;;;13.97;53.55;100125.28;4941758;28;7072;-84
2023/12/28 06:10:46;;;;;;;;;;;;;;;13.95;53.79;100126.06;4958991;28;6818;-83
2023/12/28 06:13:11;;;;;;;;;;;;;;;13.92;53.94;100119.13;4958873;28;7141;-83
2023/12/28 06:15:37;;;;;;;;;;;;;;;13.92;54.18;100131.13;4969746;28;8397;-83
2023/12/28 06:18:04;;;;;;;;;;;;;;;13.90;53.86;100141.38;4973732;28;8511;-84
2023/12/28 06:20:29;;;;;;;;;;;;;;;13.87;53.38;100141.28;4954712;28;6793;-84
2023/12/28 06:22:55;;;;;;;;;;;;;;;13.85;53.44;100143.81;4965603;28;6856;-84
2023/12/28 06:25:20;;;;;;;;;;;;;;;13.82;53.34;100138.56;4974273;28;6960;-84
2023/12/28 06:27:46;;;;;;;;;;;;;;;13.80;53.26;100139.34;4947404;28;6945;-84
2023/12/28 06:30:12;;;;;;;;;;;;;;;13.80;53.46;100152.22;4941193;28;8568;-84
2023/12/28 06:32:37;;;;;;;;;;;;;;;13.77;53.46;100155.59;4956894;28;6826;-84
2023/12/28 06:35:03;;;;;;;;;;;;;;;13.73;53.63;100151.16;4953781;28;6780;-84
2023/12/28 06:37:29;;;;;;;;;;;;;;;13.71;53.91;100158.88;4958373;28;6852;-84
2023/12/28 06:39:54;;;;;;;;;;;;;;;13.72;53.49;100170.91;4956021;28;6965;-84
2023/12/28 06:42:20;;;;;;;;;;;;;;;13.73;53.63;100153.75;4940595;28;7314;-84
2023/12/28 06:44:45;;;;;;;;;;;;;;;13.78;54.11;100164.19;4956788;28;6796;-84
2023/12/28 06:47:11;;;;;;;;;;;;;;;13.79;53.38;100153.06;4957324;28;7188;-84
2023/12/28 06:49:36;;;;;;;;;;;;;;;13.78;53.89;100161.63;4958542;28;6780;-85
2023/12/28 06:52:04;;;;;;;;;;;;;;;13.78;54.14;100157.34;4940621;28;8446;-85
2023/12/28 06:54:30;;;;;;;;;;;;;;;13.75;53.51;100158.13;4944878;28;6979;-85
2023/12/28 06:56:57;;;;;;;;;;;;;;;13.75;53.13;100158.13;4957556;28;6792;-85
2023/12/28 06:59:23;;;;;;;;;;;;;;;13.75;53.46;100158.13;4957165;28;6947;-85
2023/12/28 07:02:00;;;;;;;;;;;;;;;13.78;53.50;100169.34;4982482;28;6760;-86
2023/12/28 07:04:29;;;;;;;;;;;;;;;13.77;53.67;100167.59;4963622;28;6955;-84
2023/12/28 07:06:55;;;;;;;;;;;;;;;13.77;53.28;100171.06;4980046;28;7146;-85
2023/12/28 07:09:20;;;;;;;;;;;;;;;13.80;53.59;100175.41;4971310;28;6956;-85
2023/12/28 07:11:46;;;;;;;;;;;;;;;13.85;53.81;100171.28;4984127;28;7049;-84
2023/12/28 07:14:12;;;;;;;;;;;;;;;13.89;53.65;100173.13;4938411;28;7212;-84
2023/12/28 07:16:37;;;;;;;;;;;;;;;13.92;53.68;100180.97;4983166;28;6760;-85
2023/12/28 07:19:04;;;;;;;;;;;;;;;13.95;53.52;100185.31;4953204;28;8467;-84
2023/12/28 07:21:29;;;;;;;;;;;;;;;13.96;53.31;100177.66;4965994;28;8522;-83
2023/12/28 07:23:55;;;;;;;;;;;;;;;13.99;53.76;100171.72;4970182;28;8520;-85
2023/12/28 07:26:21;;;;;;;;;;;;;;;14.02;53.85;100172.69;4985269;28;6945;-83
2023/12/28 07:28:48;;;;;;;;;;;;;;;14.06;53.23;100183.06;4969734;28;8800;-84
2023/12/28 07:31:27;;;;;;;;;;;;;;;14.07;52.75;100189.97;4962507;28;7136;-84
2023/12/28 07:33:54;;;;;;;;;;;;;;;14.08;53.13;100195.19;5003396;28;8648;-83
2023/12/28 07:36:21;;;;;;;;;;;;;;;14.12;53.42;100193.59;4976442;28;6859;-84
2023/12/28 07:38:46;;;;;;;;;;;;;;;14.13;53.18;100196.19;4989130;28;6807;-82
2023/12/28 07:41:12;;;;;;;;;;;;;;;14.14;53.21;100205.66;4954013;28;8489;-85
2023/12/28 07:43:38;;;;;;;;;;;;;;;14.14;52.73;100215.13;4999508;28;6791;-84
2023/12/28 07:46:04;;;;;;;;;;;;;;;14.14;52.51;100209.97;4971266;28;6776;-84
2023/12/28 07:48:30;;;;;;;;;;;;;;;14.15;53.31;100227.16;4978104;28;7181;-84
2023/12/28 07:50:57;;;;;;;;;;;;;;;14.14;52.71;100223.69;4986490;28;7323;-85
2023/12/28 07:53:23;;;;;;;;;;;;;;;14.13;53.30;100219.38;5001986;28;7354;-85
2023/12/28 07:55:48;;;;;;;;;;;;;;;14.11;52.98;100225.34;4991950;28;7124;-83
2023/12/28 07:58:15;;;;;;;;;;;;;;;14.08;53.12;100223.53;5005919;28;7139;-84
2023/12/28 08:00:40;;;;;;;;;;;;;;;14.06;52.58;100238.09;5009919;28;7126;-83
2023/12/28 08:03:06;;;;;;;;;;;;;;;14.03;52.51;100244.00;5013019;28;6764;-84
2023/12/28 08:05:32;;;;;;;;;;;;;;;14.01;52.76;100242.19;5022889;28;7272;-84
2023/12/28 08:07:57;;;;;;;;;;;;;;;14.06;53.03;100243.22;5028971;28;8724;-84
2023/12/28 08:10:23;;;;;;;;;;;;;;;14.12;53.72;100250.28;4995375;28;7387;-84
2023/12/28 08:12:49;;;;;;;;;;;;;;;14.18;53.47;100245.28;5004344;28;8675;-86
2023/12/28 08:15:18;;;;;;;;;;;;;;;14.24;52.80;100242.91;4995803;28;7329;-85
2023/12/28 08:17:43;;;;;;;;;;;;;;;14.30;52.56;100245.69;5011850;28;7188;-84
2023/12/28 08:20:09;;;;;;;;;;;;;;;14.33;52.58;100242.31;4995372;28;7153;-83
2023/12/28 08:22:35;;;;;;;;;;;;;;;14.36;52.52;100241.53;5006825;28;6768;-84
2023/12/28 08:25:00;;;;;;;;;;;;;;;14.36;52.33;100238.94;5005546;28;8520;-84
2023/12/28 08:27:26;;;;;;;;;;;;;;;14.36;52.21;100245.00;4996986;28;8363;-85
2023/12/28 08:29:52;;;;;;;;;;;;;;;14.35;52.06;100253.56;4996020;28;6792;-84
2023/12/28 08:32:18;;;;;;;;;;;;;;;14.33;52.17;100247.47;5011453;28;7281;-84
2023/12/28 08:34:43;;;;;;;;;;;;;;;14.33;52.13;100254.34;4989953;28;8475;-84
2023/12/28 08:37:10;;;;;;;;;;;;;;;14.33;52.52;100256.91;5015344;28;6967;-84
2023/12/28 08:39:36;;;;;;;;;;;;;;;14.30;52.61;100260.28;5000215;28;6950;-84
2023/12/28 08:42:01;;;;;;;;;;;;;;;14.30;51.85;100255.13;4999991;28;8382;-84
2023/12/28 08:44:27;;;;;;;;;;;;;;;14.30;52.16;100262.84;4998186;28;8699;-84
2023/12/28 08:46:56;;;;;;;;;;;;;;;14.27;51.90;100260.19;5015506;28;7179;-84
2023/12/28 08:49:22;;;;;;;;;;;;;;;14.27;51.68;100245.56;4996286;28;6800;-85
2023/12/28 08:51:47;;;;;;;;;;;;;;;14.30;52.70;100253.44;5016406;28;8447;-84
2023/12/28 08:54:14;;;;;;;;;;;;;;;14.33;52.26;100255.19;5018646;28;6764;-84
2023/12/28 08:56:39;;;;;;;;;;;;;;;14.34;52.13;100256.97;4991954;28;6973;-85
2023/12/28 08:59:05;;;;;;;;;;;;;;;14.35;51.96;100257.84;5009399;28;7106;-84
2023/12/28 09:01:31;;;;;;;;;;;;;;;14.37;52.53;100249.31;5011062;28;6819;-84
2023/12/28 09:03:58;;;;;;;;;;;;;;;14.38;51.95;100253.66;5013858;28;6780;-84
2023/12/28 09:06:24;;;;;;;;;;;;;;;14.40;51.78;100253.69;5005878;28;7173;-84
2023/12/28 09:08:51;;;;;;;;;;;;;;;14.44;52.24;100252.94;5015061;28;8453;-84
2023/12/28 09:11:18;;;;;;;;;;;;;;;14.43;51.63;100252.06;5014269;28;8522;-84
2023/12/28 09:13:45;;;;;;;;;;;;;;;14.45;52.00;100254.69;5003982;28;7209;-84
2023/12/28 09:16:14;;;;;;;;;;;;;;;14.48;52.03;100241.88;4986777;28;7420;-85
2023/12/28 09:18:41;;;;;;;;;;;;;;;14.51;51.70;100249.72;4989922;28;6963;-84
2023/12/28 09:21:09;;;;;;;;;;;;;;;14.56;51.20;100243.00;4994504;28;6796;-84
2023/12/28 09:23:35;;;;;;;;;;;;;;;14.61;51.20;100255.16;5026106;28;7208;-84
2023/12/28 09:26:03;;;;;;;;;;;;;;;14.64;51.68;100250.09;4988187;28;8587;-83
2023/12/28 09:28:32;;;;;;;;;;;;;;;14.69;51.73;100261.41;4983393;28;7157;-86
2023/12/28 09:30:58;;;;;;;;;;;;;;;14.77;51.59;100259.94;4983837;28;6834;-84
2023/12/28 09:33:24;;;;;;;;;;;;;;;14.82;51.68;100268.69;4975081;28;7083;-86
2023/12/28 09:35:53;;;;;;;;;;;;;;;14.88;51.51;100264.56;4979284;28;6768;-85
2023/12/28 09:38:19;;;;;;;;;;;;;;;14.96;50.98;100273.38;4970921;28;7480;-86
2023/12/28 09:40:53;;;;;;;;;;;;;;;15.03;51.24;100280.44;4989471;28;8427;-86
2023/12/28 09:43:36;;;;;;;;;;;;;;;15.10;50.71;100272.06;5010034;28;7258;-88
2023/12/28 09:46:07;;;;;;;;;;;;;;;15.18;50.79;100261.06;4967448;28;7063;-86
2023/12/28 09:48:36;;;;;;;;;;;;;;;15.25;50.57;100263.84;4996229;28;6968;-85
2023/12/28 09:51:02;;;;;;;;;;;;;;;15.28;50.58;100266.50;4994511;28;7967;-86
2023/12/28 09:53:29;;;;;;;;;;;;;;;15.33;50.50;100256.28;5010757;28;8856;-86
2023/12/28 09:55:54;;;;;;;;;;;;;;;15.33;49.86;100265.78;5028620;28;7190;-85
2023/12/28 09:58:33;;;;;;;;;;;;;;;15.38;50.37;100266.75;4984343;28;7182;-88
2023/12/28 10:01:00;;;;;;;;;;;;;;;15.41;50.04;100270.28;4988744;28;7168;-88
2023/12/28 10:03:39;;;;;;;;;;;;;;;15.41;49.92;100259.97;4994592;28;7166;-89
2023/12/28 10:06:05;;;;;;;;;;;;;;;15.47;49.99;100268.72;4979258;28;7166;-90
2023/12/28 10:08:30;;;;;;;;;;;;;;;15.49;49.54;100264.47;5023454;28;7104;-87
2023/12/28 10:10:58;;;;;;;;;;;;;;;15.52;49.75;100260.25;4979706;28;6803;-89
2023/12/28 10:13:25;;;;;;;;;;;;;;;15.56;49.38;100268.94;4975639;28;7142;-90
2023/12/28 10:15:51;;;;;;;;;;;;;;;15.60;49.48;100268.19;4978340;28;6953;-90
2023/12/28 10:18:19;;;;;;;;;;;;;;;15.67;49.60;100264.03;5012295;28;7253;-88
2023/12/28 10:20:55;;;;;;;;;;;;;;;15.81;49.03;100270.44;4985669;28;7040;-89
2023/12/28 10:23:21;;;;;;;;;;;;;;;15.90;48.83;100274.09;4997487;28;6955;-90
2023/12/28 10:25:49;;;;;;;;;;;;;;;16.00;49.00;100285.53;4992597;28;6950;-89
2023/12/28 10:28:18;;;;;;;;;;;;;;;16.10;48.65;100284.91;4978478;28;6966;-88
2023/12/28 10:30:47;;;;;;;;;;;;;;;16.22;48.54;100292.09;4976664;28;7171;-89
2023/12/28 10:33:14;;;;;;;;;;;;;;;16.33;48.76;100293.19;4978696;28;7202;-88
2023/12/28 10:35:40;;;;;;;;;;;;;;;16.41;48.30;100279.56;4996585;28;8420;-90
2023/12/28 10:38:10;;;;;;;;;;;;;;;16.49;47.69;100284.06;5004508;28;6944;-90
2023/12/28 10:40:39;;;;;;;;;;;;;;;16.46;46.68;100215.88;4979406;28;7087;-86
2023/12/28 10:43:08;;;;;;;;;;;;;;;16.42;47.02;100271.84;4994320;28;8543;-85
2023/12/28 10:45:37;;;;;;;;;;;;;;;16.38;46.80;100268.31;5024187;28;7201;-83
2023/12/28 10:48:11;;;;;;;;;;;;;;;16.37;47.28;100268.28;5013177;28;7171;-83
2023/12/28 10:50:49;;;;;;;;;;;;;;;16.40;46.95;100244.22;4986625;28;6852;-83
2023/12/28 10:53:44;;;;;;;;;;;;;;;16.41;47.08;100258.88;5027761;28;7205;-82
2023/12/28 10:56:32;;;;;;;;;;;;;;;16.38;47.01;100270.91;5019632;28;7438;-85
2023/12/28 10:59:16;;;;;;;;;;;;;;;16.43;47.05;100268.44;5013442;28;7050;-88
2023/12/28 11:01:46;;;;;;;;;;;;;;;16.49;47.02;100265.94;5010704;28;6958;-87
2023/12/28 11:04:35;;;;;;;;;;;;;;;16.52;46.87;100271.22;5011609;28;7061;-82
2023/12/28 11:07:03;;;;;;;;;;;;;;;16.51;46.72;100253.94;5002595;28;6963;-82
2023/12/28 11:09:31;;;;;;;;;;;;;;;16.53;46.51;100246.19;5004078;28;7205;-83
2023/12/28 11:12:00;;;;;;;;;;;;;;;16.56;46.54;100245.41;5013490;28;8508;-81
2023/12/28 11:14:28;;;;;;;;;;;;;;;16.61;47.06;100247.25;5014926;28;7800;-80
2023/12/28 11:16:58;;;;;;;;;;;;;;;16.64;46.55;100233.50;5005688;28;7208;-81
2023/12/28 11:19:24;;;;;;;;;;;;;;;16.69;46.40;100231.88;5005161;28;6880;-81
2023/12/28 11:21:52;;;;;;;;;;;;;;;16.73;46.40;100230.22;4999771;28;8466;-82
2023/12/28 11:24:19;;;;;;;;;;;;;;;16.75;46.45;100224.22;5004931;28;6808;-83
2023/12/28 11:26:51;;;;;;;;;;;;;;;16.88;46.34;100224.47;5014322;28;6845;-83
2023/12/28 11:29:20;;;;;;;;;;;;;;;17.03;45.61;100217.03;4997760;28;8399;-82
2023/12/28 11:31:52;;;;;;;;;;;;;;;17.24;45.96;100222.56;4996389;28;8992;-83
2023/12/28 11:34:17;;;;;;;;;;;;;;;17.53;45.77;100236.03;5007497;28;6780;-82
2023/12/28 11:36:55;;;;;;;;;;;;;;;17.79;45.02;100222.63;5014135;28;7351;-82
2023/12/28 11:39:38;;;;;;;;;;;;;;;17.87;44.68;100217.53;5012590;28;8544;-84
2023/12/28 11:42:08;;;;;;;;;;;;;;;17.84;44.23;100215.78;4990612;28;8615;-83
2023/12/28 11:44:44;;;;;;;;;;;;;;;17.76;44.27;100235.50;4990243;28;8570;-83
2023/12/28 11:47:23;;;;;;;;;;;;;;;17.79;43.87;100222.63;5000607;28;6820;-85
2023/12/28 11:49:54;;;;;;;;;;;;;;;17.79;43.87;100226.91;5019179;28;8444;-83
2023/12/28 11:52:32;;;;;;;;;;;;;;;17.85;44.11;100220.09;5039692;28;8500;-82
2023/12/28 11:54:59;;;;;;;;;;;;;;;17.89;43.58;100218.44;5002485;28;7097;-84
2023/12/28 11:57:25;;;;;;;;;;;;;;;17.87;43.58;100212.38;5000678;28;8481;-84
2023/12/28 11:59:57;;;;;;;;;;;;;;;17.85;43.53;100214.91;5006876;28;7227;-85
2023/12/28 12:02:26;;;;;;;;;;;;;;;17.88;43.68;100207.22;4992778;28;7386;-85
2023/12/28 12:04:54;;;;;;;;;;;;;;;17.90;44.18;100210.69;5009697;28;8561;-85
2023/12/28 12:07:21;;;;;;;;;;;;;;;17.84;43.82;100204.56;5021223;28;8513;-85
2023/12/28 12:09:46;;;;;;;;;;;;;;;17.72;43.37;100200.03;5002408;28;8390;-85
2023/12/28 12:12:12;;;;;;;;;;;;;;;17.59;43.62;100184.31;5037217;28;8357;-86
2023/12/28 12:14:38;;;;;;;;;;;;;;;17.46;43.88;100203.06;5028329;28;7304;-85
2023/12/28 12:17:04;;;;;;;;;;;;;;;17.37;43.70;100208.09;5010936;28;8493;-85
2023/12/28 12:19:30;;;;;;;;;;;;;;;17.27;44.31;100192.41;5025101;28;8934;-85
2023/12/28 12:21:56;;;;;;;;;;;;;;;17.20;43.96;100178.47;5033539;28;6981;-85
2023/12/28 12:24:23;;;;;;;;;;;;;;;17.13;44.32;100183.53;5015107;28;7154;-81
2023/12/28 12:26:51;;;;;;;;;;;;;;;17.08;44.16;100180.88;5016431;28;6848;-84
2023/12/28 12:29:17;;;;;;;;;;;;;;;17.03;44.27;100174.72;5033478;28;8564;-85
2023/12/28 12:31:47;;;;;;;;;;;;;;;16.98;44.39;100178.94;4988503;28;7503;-85
2023/12/28 12:34:16;;;;;;;;;;;;;;;16.94;43.95;100167.66;5032167;28;7416;-85
2023/12/28 12:36:43;;;;;;;;;;;;;;;16.87;44.97;100173.53;5010388;28;7027;-85
2023/12/28 12:39:13;;;;;;;;;;;;;;;16.84;44.50;100165.72;5020393;28;7152;-86
2023/12/28 12:41:39;;;;;;;;;;;;;;;16.79;44.31;100157.88;5022076;28;7610;-86
2023/12/28 12:44:06;;;;;;;;;;;;;;;16.74;44.72;100154.31;5025580;28;6977;-86